Time;durP1;ratioP1;P1;durP2;ratioP2;P2;SDS_P1;SDS_P2;PMS_P1;PMS_P2;Temp;Humidity;BMP_temperature;BMP_pressure;BME280_temperature;BME280_humidity;BME280_pressure;Samples;Min_cycle;Max_cycle;Signal;HPM_P1;HPM_P2
2021/12/04 00:01:17;;;;;;;46.30;23.42;;;5.00;99.90;;;;;;5034435;28;20134;-82
2021/12/04 00:03:42;;;;;;;53.83;26.55;;;5.00;99.90;;;;;;5021505;28;20529;-83
2021/12/04 00:06:36;;;;;;;55.10;26.45;;;5.00;99.90;;;;;;5031016;28;20052;-82
2021/12/04 00:09:02;;;;;;;48.20;26.23;;;5.00;99.90;;;;;;5027940;28;20045;-82
2021/12/04 00:11:27;;;;;;;55.35;26.77;;;5.00;99.90;;;;;;5022377;28;20038;-82
2021/12/04 00:13:53;;;;;;;49.25;25.83;;;4.90;99.90;;;;;;5048958;28;20045;-83
2021/12/04 00:16:19;;;;;;;50.42;24.60;;;5.00;99.90;;;;;;5037966;28;20175;-82
2021/12/04 00:18:44;;;;;;;54.28;27.00;;;5.00;99.90;;;;;;5026033;28;20390;-82
2021/12/04 00:21:10;;;;;;;54.58;26.90;;;4.90;99.90;;;;;;5030347;28;20035;-82
2021/12/04 00:23:36;;;;;;;59.40;27.00;;;5.00;99.90;;;;;;5021132;28;20048;-82
2021/12/04 00:26:04;;;;;;;56.25;26.10;;;4.90;99.90;;;;;;5017988;28;20085;-83
2021/12/04 00:28:30;;;;;;;59.08;27.60;;;4.90;99.90;;;;;;5049711;28;20424;-82
2021/12/04 00:30:56;;;;;;;55.47;27.55;;;4.90;99.90;;;;;;5029325;28;20040;-82
2021/12/04 00:33:28;;;;;;;57.80;27.88;;;5.00;99.90;;;;;;5018235;28;20524;-83
2021/12/04 00:36:06;;;;;;;58.67;26.60;;;5.00;99.90;;;;;;5026890;28;20049;-82
2021/12/04 00:49:28;;;;;;;63.28;27.65;;;4.90;99.90;;;;;;5027531;28;20045;-82
2021/12/04 00:51:54;;;;;;;62.25;27.58;;;4.90;99.90;;;;;;5037000;28;20044;-82
2021/12/04 00:54:25;;;;;;;69.82;27.38;;;4.90;99.90;;;;;;5034125;28;20052;-82
2021/12/04 00:56:56;;;;;;;66.22;28.33;;;4.90;99.90;;;;;;5032557;28;20037;-83
2021/12/04 00:59:22;;;;;;;59.67;27.55;;;4.90;99.90;;;;;;5031028;28;20047;-83
2021/12/04 01:01:48;;;;;;;65.97;27.02;;;4.90;99.90;;;;;;5018740;28;20045;-82
2021/12/04 01:04:17;;;;;;;64.18;28.05;;;4.90;99.90;;;;;;5037718;28;20042;-82
2021/12/04 01:06:44;;;;;;;60.95;26.33;;;5.00;99.90;;;;;;5035475;28;20078;-82
2021/12/04 01:09:12;;;;;;;59.65;26.85;;;4.90;99.90;;;;;;5028947;28;20041;-83
2021/12/04 01:11:39;;;;;;;59.35;27.20;;;4.90;99.90;;;;;;5031379;28;20305;-82
2021/12/04 01:14:06;;;;;;;65.28;27.15;;;4.90;99.90;;;;;;5031822;28;20045;-82
2021/12/04 01:16:32;;;;;;;65.20;27.25;;;4.90;99.90;;;;;;5050147;28;20040;-82
2021/12/04 01:18:58;;;;;;;67.70;27.55;;;4.90;99.90;;;;;;5020607;28;20102;-82
2021/12/04 01:21:23;;;;;;;63.63;26.30;;;4.90;99.90;;;;;;5014771;28;20112;-82
2021/12/04 01:23:52;;;;;;;67.88;26.48;;;4.90;99.90;;;;;;5032486;28;20036;-82
2021/12/04 01:26:18;;;;;;;65.38;26.23;;;4.90;99.90;;;;;;5019676;28;20102;-82
2021/12/04 01:28:43;;;;;;;71.68;27.20;;;4.90;99.90;;;;;;5032633;28;20522;-82
2021/12/04 01:31:09;;;;;;;64.20;25.95;;;4.90;99.90;;;;;;5031428;28;20089;-82
2021/12/04 01:33:35;;;;;;;65.70;26.00;;;4.90;99.90;;;;;;5032367;28;20057;-82
2021/12/04 01:36:26;;;;;;;73.15;28.13;;;4.90;99.90;;;;;;5018056;28;20049;-83
2021/12/04 01:38:52;;;;;;;67.93;28.15;;;4.90;99.90;;;;;;5031622;28;20086;-82
2021/12/04 01:41:18;;;;;;;65.05;26.25;;;4.90;99.90;;;;;;5032244;28;20069;-83
2021/12/04 01:43:44;;;;;;;62.13;26.60;;;5.00;99.90;;;;;;5032121;28;20531;-82
2021/12/04 01:46:09;;;;;;;68.53;25.73;;;4.90;99.90;;;;;;5015183;28;20044;-82
2021/12/04 01:48:35;;;;;;;68.10;26.65;;;4.90;99.90;;;;;;5032458;28;20045;-82
2021/12/04 01:51:04;;;;;;;67.00;25.23;;;5.00;99.90;;;;;;5026457;28;20114;-82
2021/12/04 01:53:31;;;;;;;64.30;26.20;;;5.00;99.90;;;;;;5028472;28;20129;-82
2021/12/04 01:55:59;;;;;;;69.10;26.27;;;4.90;99.90;;;;;;5017800;28;20064;-82
2021/12/04 01:58:28;;;;;;;66.18;25.83;;;4.90;99.90;;;;;;5028906;28;20037;-83
2021/12/04 02:00:54;;;;;;;72.13;26.65;;;5.00;99.90;;;;;;5031495;28;20042;-82
2021/12/04 02:03:20;;;;;;;77.25;28.63;;;5.00;99.90;;;;;;5034729;28;20044;-83
2021/12/04 02:05:48;;;;;;;67.25;25.35;;;5.00;99.90;;;;;;5027586;28;20047;-83
2021/12/04 02:08:20;;;;;;;77.00;26.45;;;5.00;99.90;;;;;;5028835;28;20052;-82
2021/12/04 02:10:48;;;;;;;72.40;26.65;;;4.90;99.90;;;;;;5014663;28;20566;-82
2021/12/04 02:13:16;;;;;;;72.30;27.08;;;4.90;99.90;;;;;;5046330;28;20300;-83
2021/12/04 02:15:43;;;;;;;64.80;25.88;;;4.90;99.90;;;;;;5035823;28;20067;-82
2021/12/04 02:18:09;;;;;;;63.70;26.65;;;4.90;99.90;;;;;;5030708;28;20043;-82
2021/12/04 02:20:35;;;;;;;62.33;25.65;;;4.90;99.90;;;;;;5031218;28;20025;-82
2021/12/04 02:23:06;;;;;;;77.57;27.92;;;5.00;99.90;;;;;;5034690;28;20040;-82
2021/12/04 02:25:32;;;;;;;65.93;25.58;;;5.00;99.90;;;;;;5015610;28;20045;-82
2021/12/04 02:28:00;;;;;;;69.93;24.25;;;5.00;99.90;;;;;;5033497;28;20412;-82
2021/12/04 02:30:29;;;;;;;74.97;25.52;;;5.00;99.90;;;;;;5020060;28;20030;-82
2021/12/04 02:32:56;;;;;;;79.28;26.83;;;4.90;99.90;;;;;;5016721;28;20057;-83
2021/12/04 02:35:22;;;;;;;84.65;26.67;;;5.00;99.90;;;;;;5029507;28;20046;-83
2021/12/04 02:37:47;;;;;;;67.88;24.70;;;4.90;99.90;;;;;;5028600;28;20060;-82
2021/12/04 02:40:19;;;;;;;64.00;24.52;;;4.90;99.90;;;;;;5045816;28;20124;-82
2021/12/04 02:42:48;;;;;;;65.45;23.52;;;4.90;99.90;;;;;;5045293;28;20069;-82
2021/12/04 02:45:14;;;;;;;59.28;24.08;;;4.90;99.90;;;;;;5017999;28;20500;-83
2021/12/04 02:47:41;;;;;;;59.65;24.50;;;4.90;99.90;;;;;;5044920;28;20083;-83
2021/12/04 02:50:10;;;;;;;55.88;23.65;;;5.00;99.90;;;;;;5013564;28;20376;-83
2021/12/04 02:52:36;;;;;;;48.60;22.85;;;5.00;99.90;;;;;;5018669;28;20480;-83
2021/12/04 02:55:03;;;;;;;53.65;22.40;;;4.90;99.90;;;;;;5026084;28;20075;-83
2021/12/04 02:57:30;;;;;;;53.45;21.63;;;4.90;99.90;;;;;;5017557;28;20049;-82
2021/12/04 02:59:58;;;;;;;44.55;20.65;;;4.90;99.90;;;;;;5028493;28;20301;-82
2021/12/04 03:02:25;;;;;;;45.90;20.70;;;4.80;99.90;;;;;;5045632;28;20096;-82
2021/12/04 03:04:52;;;;;;;48.40;20.23;;;4.90;99.90;;;;;;5026007;28;20147;-82
2021/12/04 03:07:19;;;;;;;51.95;20.58;;;4.90;99.90;;;;;;5019139;28;20147;-82
2021/12/04 03:09:45;;;;;;;46.35;19.80;;;5.00;99.90;;;;;;5017296;28;20521;-82
2021/12/04 03:12:13;;;;;;;42.95;19.52;;;4.90;99.90;;;;;;5018533;28;20033;-82
2021/12/04 03:14:39;;;;;;;45.65;19.98;;;4.90;99.90;;;;;;5016953;28;20150;-82
2021/12/04 03:17:05;;;;;;;39.53;19.77;;;4.90;99.90;;;;;;5032956;28;20537;-83
2021/12/04 03:19:31;;;;;;;46.20;20.27;;;4.90;99.90;;;;;;5028440;28;20052;-82
2021/12/04 03:21:57;;;;;;;37.25;19.08;;;4.90;99.90;;;;;;5027957;28;20397;-83
2021/12/04 03:24:24;;;;;;;42.40;18.50;;;4.90;99.90;;;;;;5032316;28;20036;-82
2021/12/04 03:26:51;;;;;;;37.80;18.27;;;4.90;99.90;;;;;;5018627;28;20350;-83
2021/12/04 03:29:21;;;;;;;41.03;19.52;;;4.90;99.90;;;;;;5022620;28;20116;-83
2021/12/04 03:42:31;;;;;;;36.28;17.90;;;4.90;99.90;;;;;;5049417;28;20041;-83
2021/12/04 03:44:57;;;;;;;37.08;18.10;;;4.90;99.90;;;;;;5024016;28;20536;-82
2021/12/04 03:47:23;;;;;;;37.72;17.63;;;4.80;99.90;;;;;;5031595;28;20178;-83
2021/12/04 03:49:49;;;;;;;38.00;17.25;;;4.80;99.90;;;;;;5030386;28;20037;-83
2021/12/04 03:52:15;;;;;;;37.85;18.00;;;4.80;99.90;;;;;;5034153;28;20175;-82
2021/12/04 03:54:42;;;;;;;39.05;17.75;;;4.90;99.90;;;;;;5046288;28;20452;-82
2021/12/04 03:57:12;;;;;;;37.22;17.60;;;4.80;99.90;;;;;;5034191;28;20128;-82
2021/12/04 03:59:40;;;;;;;43.30;18.80;;;4.90;99.90;;;;;;5031164;28;20523;-83
2021/12/04 04:02:09;;;;;;;46.00;18.77;;;4.90;99.90;;;;;;5018424;28;20084;-82
2021/12/04 04:04:35;;;;;;;39.95;17.90;;;4.90;99.90;;;;;;5021276;28;20045;-82
2021/12/04 04:07:01;;;;;;;45.00;19.52;;;4.80;99.90;;;;;;5021257;28;20557;-82
2021/12/04 04:09:28;;;;;;;42.15;18.02;;;4.80;99.90;;;;;;5018423;28;20041;-82
2021/12/04 04:11:54;;;;;;;35.28;17.02;;;4.80;99.90;;;;;;5024740;28;20106;-83
2021/12/04 04:14:20;;;;;;;40.92;18.30;;;4.80;99.90;;;;;;5031397;28;20040;-83
2021/12/04 04:16:46;;;;;;;44.72;19.83;;;4.80;99.90;;;;;;5031414;28;20037;-83
2021/12/04 04:19:11;;;;;;;37.45;18.83;;;4.80;99.90;;;;;;5035264;28;20103;-83
2021/12/04 04:21:40;;;;;;;47.13;17.92;;;4.90;99.90;;;;;;5032919;28;20124;-83
2021/12/04 04:24:10;;;;;;;38.97;17.77;;;4.80;99.90;;;;;;5012538;28;20056;-83
2021/12/04 04:26:37;;;;;;;47.60;18.75;;;4.80;99.90;;;;;;5017998;28;20114;-82
2021/12/04 04:29:04;;;;;;;43.60;18.15;;;4.80;99.90;;;;;;5030080;28;20504;-82
2021/12/04 04:31:31;;;;;;;40.45;18.42;;;4.90;99.90;;;;;;5032090;28;20044;-82
2021/12/04 04:34:06;;;;;;;38.85;17.90;;;4.90;99.90;;;;;;5051938;28;20137;-82
2021/12/04 04:58:45;;;;;;;44.88;17.60;;;4.90;99.90;;;;;;5027065;28;20132;-83
2021/12/04 05:12:11;;;;;;;48.03;18.50;;;4.80;99.90;;;;;;5046777;28;20191;-82
2021/12/04 05:14:39;;;;;;;54.15;18.50;;;4.80;99.90;;;;;;5020241;28;20041;-82
2021/12/04 05:17:11;;;;;;;42.70;18.83;;;4.80;99.90;;;;;;5033291;28;20106;-82
2021/12/04 05:19:46;;;;;;;42.72;17.45;;;4.80;99.90;;;;;;5033946;28;20206;-82
2021/12/04 05:22:14;;;;;;;41.55;16.65;;;4.80;99.90;;;;;;5027566;28;20029;-83
2021/12/04 05:24:41;;;;;;;34.88;16.98;;;4.80;99.90;;;;;;5019316;28;20330;-82
2021/12/04 05:27:08;;;;;;;45.60;17.17;;;4.80;99.90;;;;;;5015319;28;20071;-82
2021/12/04 05:29:34;;;;;;;46.03;18.40;;;4.90;99.90;;;;;;5019514;28;20395;-83
2021/12/04 05:32:00;;;;;;;42.72;17.17;;;4.90;99.90;;;;;;5034201;28;20136;-82
2021/12/04 05:34:26;;;;;;;46.30;18.30;;;4.80;99.90;;;;;;5030776;28;20144;-82
2021/12/04 05:36:52;;;;;;;43.40;17.48;;;4.90;99.90;;;;;;5033182;28;20049;-82
2021/12/04 05:39:18;;;;;;;45.17;16.88;;;4.80;99.90;;;;;;5029804;28;20037;-82
2021/12/04 05:41:43;;;;;;;47.20;17.48;;;4.90;99.90;;;;;;5017625;28;20041;-82
2021/12/04 05:44:10;;;;;;;41.08;17.23;;;4.90;99.90;;;;;;5017851;28;20029;-83
2021/12/04 05:46:44;;;;;;;45.78;18.52;;;4.90;99.90;;;;;;5022721;28;20115;-82
2021/12/04 05:49:21;;;;;;;32.70;15.93;;;4.90;99.90;;;;;;5046950;28;20420;-82
2021/12/04 05:52:05;;;;;;;37.63;16.80;;;4.90;99.90;;;;;;5031794;28;20200;-82
2021/12/04 05:57:05;;;;;;;41.97;17.52;;;4.90;99.90;;;;;;5029454;28;20163;-82
2021/12/04 05:59:31;;;;;;;38.03;15.85;;;4.80;99.90;;;;;;5032220;28;20043;-83
2021/12/04 06:02:00;;;;;;;38.15;17.23;;;4.80;99.90;;;;;;5015739;28;20141;-82
2021/12/04 06:04:26;;;;;;;39.63;17.05;;;4.90;99.90;;;;;;5014637;28;20107;-82
2021/12/04 06:06:52;;;;;;;37.83;15.90;;;4.80;99.90;;;;;;5030302;28;20399;-82
2021/12/04 06:09:19;;;;;;;48.78;17.23;;;4.80;99.90;;;;;;5013377;28;20037;-83
2021/12/04 06:11:44;;;;;;;42.97;17.50;;;4.90;99.90;;;;;;5019468;28;20075;-82
2021/12/04 06:14:15;;;;;;;40.75;16.65;;;4.80;99.90;;;;;;5030236;28;20378;-82
2021/12/04 06:16:41;;;;;;;44.47;16.75;;;4.80;99.90;;;;;;5034460;28;20052;-82
2021/12/04 06:19:25;;;;;;;46.97;17.02;;;4.80;99.90;;;;;;5013539;28;20041;-82
2021/12/04 06:24:35;;;;;;;45.27;18.27;;;4.80;99.90;;;;;;5031246;28;20040;-83
2021/12/04 06:27:00;;;;;;;48.55;17.08;;;4.80;99.90;;;;;;5016242;28;20425;-82
2021/12/04 06:29:26;;;;;;;56.80;18.45;;;4.80;99.90;;;;;;5031985;28;20399;-82
2021/12/04 06:31:52;;;;;;;58.65;19.20;;;4.80;99.90;;;;;;5007996;28;20075;-82
2021/12/04 06:34:17;;;;;;;49.28;17.40;;;4.90;99.90;;;;;;5027640;28;20060;-83
2021/12/04 06:36:43;;;;;;;53.15;18.10;;;4.90;99.90;;;;;;5031782;28;20053;-83
2021/12/04 06:39:09;;;;;;;68.20;19.65;;;4.90;99.90;;;;;;5030594;28;20041;-82
2021/12/04 06:41:35;;;;;;;62.50;18.65;;;4.80;99.90;;;;;;5030324;28;20037;-82
2021/12/04 06:44:01;;;;;;;47.65;17.63;;;4.90;99.90;;;;;;5017287;28;20070;-82
2021/12/04 06:46:27;;;;;;;73.60;20.60;;;4.80;99.90;;;;;;5045910;28;20132;-83
2021/12/04 06:49:12;;;;;;;47.65;18.33;;;4.90;99.90;;;;;;5047876;28;20450;-82
2021/12/04 06:51:40;;;;;;;46.20;18.63;;;4.90;99.90;;;;;;5032217;28;20289;-83
2021/12/04 06:54:17;;;;;;;75.03;20.65;;;4.90;99.90;;;;;;5031180;28;20125;-82
2021/12/04 06:56:43;;;;;;;71.45;20.27;;;4.90;99.90;;;;;;5020082;28;20479;-82
2021/12/04 06:59:14;;;;;;;82.63;21.08;;;4.90;99.90;;;;;;5033715;28;20041;-82
2021/12/04 07:01:43;;;;;;;71.25;19.85;;;4.80;99.90;;;;;;5023289;28;20041;-82
2021/12/04 07:04:09;;;;;;;58.88;18.48;;;4.80;99.90;;;;;;5023676;28;20033;-82
2021/12/04 07:06:35;;;;;;;55.92;18.77;;;4.80;99.90;;;;;;5015153;28;20618;-82
2021/12/04 07:09:01;;;;;;;55.58;19.00;;;4.80;99.90;;;;;;5022420;28;20660;-83
2021/12/04 07:11:28;;;;;;;64.78;19.67;;;4.90;99.90;;;;;;5033246;28;20530;-82
2021/12/04 07:13:54;;;;;;;57.80;18.42;;;4.80;99.90;;;;;;5047054;28;20091;-82
2021/12/04 07:16:24;;;;;;;94.22;22.63;;;4.90;99.90;;;;;;5021847;28;20041;-82
2021/12/04 07:18:50;;;;;;;91.93;21.73;;;4.80;99.90;;;;;;5030601;28;20387;-82
2021/12/04 07:21:16;;;;;;;76.57;20.98;;;4.80;99.90;;;;;;5016835;28;20065;-82
2021/12/04 07:23:42;;;;;;;61.25;19.55;;;4.80;99.90;;;;;;5017744;28;20037;-82
2021/12/04 07:26:09;;;;;;;84.50;21.40;;;4.80;99.90;;;;;;5051944;28;20041;-83
2021/12/04 07:28:35;;;;;;;90.47;21.90;;;4.80;99.90;;;;;;5037242;28;20051;-83
2021/12/04 07:31:07;;;;;;;63.53;19.42;;;4.80;99.90;;;;;;5035990;28;20451;-82
2021/12/04 07:33:33;;;;;;;71.63;20.58;;;4.70;99.90;;;;;;5020596;28;20146;-82
2021/12/04 07:36:00;;;;;;;62.10;18.65;;;4.80;99.90;;;;;;5023801;28;20080;-83
2021/12/04 07:38:26;;;;;;;79.07;20.70;;;4.80;99.90;;;;;;5022155;28;20026;-82
2021/12/04 07:40:52;;;;;;;71.15;20.27;;;4.80;99.90;;;;;;5031466;28;20039;-82
2021/12/04 07:43:18;;;;;;;80.10;21.42;;;4.80;99.90;;;;;;5022222;28;20033;-83
2021/12/04 07:45:44;;;;;;;68.45;19.67;;;4.80;99.90;;;;;;5023568;28;20492;-82
2021/12/04 07:48:10;;;;;;;64.13;19.45;;;4.80;99.90;;;;;;5031641;28;20044;-82
2021/12/04 07:50:37;;;;;;;61.45;20.08;;;4.80;99.90;;;;;;5030623;28;20082;-82
2021/12/04 07:53:03;;;;;;;64.35;20.65;;;4.80;99.90;;;;;;5036271;28;20052;-83
2021/12/04 07:55:28;;;;;;;61.20;19.35;;;4.80;99.90;;;;;;5031190;28;20055;-85
2021/12/04 07:57:54;;;;;;;81.85;21.60;;;4.80;99.90;;;;;;5035861;28;20053;-84
2021/12/04 08:00:22;;;;;;;63.92;19.17;;;4.80;99.90;;;;;;5017132;28;20051;-84
2021/12/04 08:02:48;;;;;;;51.17;16.65;;;4.90;99.90;;;;;;5038009;28;20037;-83
2021/12/04 08:05:16;;;;;;;57.90;18.95;;;4.70;99.90;;;;;;5020636;28;20115;-84
2021/12/04 08:07:42;;;;;;;69.78;20.42;;;4.70;99.90;;;;;;5035681;28;20308;-84
2021/12/04 08:10:09;;;;;;;59.78;19.52;;;4.80;99.90;;;;;;5031879;28;20488;-84
2021/12/04 08:12:36;;;;;;;46.72;16.33;;;4.80;99.90;;;;;;5028912;28;20087;-83
2021/12/04 08:15:04;;;;;;;57.20;18.65;;;4.80;99.90;;;;;;5039383;28;20042;-83
2021/12/04 08:17:30;;;;;;;59.17;19.75;;;4.80;99.90;;;;;;5023737;28;20057;-84
2021/12/04 08:19:56;;;;;;;55.22;17.73;;;4.80;99.90;;;;;;5010946;28;20107;-84
2021/12/04 08:22:22;;;;;;;52.40;18.10;;;4.70;99.90;;;;;;5015387;28;20040;-84
2021/12/04 08:24:48;;;;;;;43.03;17.55;;;4.80;99.90;;;;;;5021384;28;20166;-83
2021/12/04 08:27:16;;;;;;;39.55;16.08;;;4.90;99.90;;;;;;5023762;28;20045;-84
2021/12/04 08:29:42;;;;;;;39.83;15.95;;;4.80;99.90;;;;;;5040480;28;20188;-82
2021/12/04 08:32:09;;;;;;;55.22;18.00;;;4.90;99.90;;;;;;5017192;28;20504;-81
2021/12/04 08:34:36;;;;;;;47.08;16.98;;;4.90;99.90;;;;;;5024955;28;20053;-82
2021/12/04 08:37:03;;;;;;;41.63;15.55;;;4.80;99.90;;;;;;5035396;28;20046;-82
2021/12/04 08:39:30;;;;;;;42.20;15.75;;;4.80;99.90;;;;;;5021379;28;20037;-82
2021/12/04 08:41:56;;;;;;;32.67;13.20;;;4.80;99.90;;;;;;5032303;28;20037;-82
2021/12/04 08:44:22;;;;;;;33.65;13.63;;;4.80;99.90;;;;;;5015394;28;20037;-82
2021/12/04 08:46:48;;;;;;;30.10;13.30;;;4.80;99.90;;;;;;5029289;28;20033;-82
2021/12/04 08:49:14;;;;;;;31.52;12.93;;;4.80;99.90;;;;;;5021827;28;20182;-82
2021/12/04 08:51:42;;;;;;;30.27;13.20;;;4.80;99.90;;;;;;5029286;28;20528;-82
2021/12/04 08:54:08;;;;;;;32.00;13.35;;;4.80;99.90;;;;;;5003960;28;20037;-82
2021/12/04 08:56:33;;;;;;;31.25;13.25;;;4.90;99.90;;;;;;5032150;28;20038;-82
2021/12/04 08:59:01;;;;;;;27.88;12.50;;;4.90;99.90;;;;;;5022310;28;20033;-82
2021/12/04 09:01:31;;;;;;;28.85;12.82;;;4.90;99.90;;;;;;5034185;28;20124;-83
2021/12/04 09:04:09;;;;;;;25.75;12.38;;;5.00;99.90;;;;;;5020823;28;20316;-82
2021/12/04 09:06:36;;;;;;;24.55;12.25;;;4.90;99.90;;;;;;5017846;28;20543;-82
2021/12/04 09:09:04;;;;;;;23.58;12.10;;;5.00;99.90;;;;;;5036750;28;20191;-82
2021/12/04 09:11:34;;;;;;;20.77;11.95;;;4.90;99.90;;;;;;5019012;28;20047;-82
2021/12/04 09:14:04;;;;;;;20.30;11.80;;;5.00;99.90;;;;;;5031293;28;20713;-82
2021/12/04 09:16:29;;;;;;;19.67;11.45;;;5.10;99.90;;;;;;5016788;28;20048;-82
2021/12/04 09:18:58;;;;;;;21.23;12.30;;;5.10;99.90;;;;;;5013365;28;20038;-82
2021/12/04 09:21:25;;;;;;;21.08;12.27;;;5.10;99.90;;;;;;5020671;28;20037;-82
2021/12/04 09:24:01;;;;;;;20.10;12.57;;;5.10;99.90;;;;;;5021588;28;20049;-82
2021/12/04 09:26:56;;;;;;;18.55;11.38;;;5.10;99.90;;;;;;5029996;28;20052;-83
2021/12/04 10:00:27;;;;;;;18.13;10.73;;;5.50;99.90;;;;;;5051196;28;19998;-84
2021/12/04 10:02:35;;;;;;;18.83;11.98;;;5.60;99.90;;;;;;5028943;28;20068;-84
2021/12/04 10:16:57;;;;;;;20.20;11.52;;;5.70;99.90;;;;;;5002685;28;20053;-83
2021/12/04 10:22:47;;;;;;;16.85;11.57;;;5.80;99.90;;;;;;4970036;28;20172;-84
2021/12/04 10:33:31;;;;;;;18.40;11.35;;;5.80;99.90;;;;;;5030128;28;20503;-83
2021/12/04 10:36:03;;;;;;;18.25;11.27;;;5.80;99.90;;;;;;5028839;28;20045;-83
2021/12/04 10:38:32;;;;;;;19.70;12.10;;;5.70;99.90;;;;;;5013662;28;20554;-84
2021/12/04 10:40:57;;;;;;;18.00;11.63;;;5.90;99.90;;;;;;5020468;28;20030;-84
2021/12/04 10:43:28;;;;;;;19.13;11.30;;;5.90;99.90;;;;;;5028728;28;20471;-83
2021/12/04 10:45:58;;;;;;;18.17;11.75;;;5.90;99.90;;;;;;5039059;28;20037;-83
2021/12/04 10:48:29;;;;;;;15.63;10.45;;;6.00;99.90;;;;;;5020830;28;20060;-83
2021/12/04 10:53:36;;;;;;;18.15;11.25;;;5.90;99.90;;;;;;5030130;28;20048;-84
2021/12/04 10:58:59;;;;;;;17.13;10.90;;;5.90;99.90;;;;;;5028008;28;20056;-84
2021/12/04 11:24:32;;;;;;;18.33;10.27;;;5.80;99.90;;;;;;5030909;28;20048;-84
2021/12/04 11:38:51;;;;;;;17.83;10.57;;;6.00;99.90;;;;;;5034319;28;20053;-84
2021/12/04 11:41:15;;;;;;;18.17;11.52;;;6.00;99.90;;;;;;5022176;28;20045;-84
2021/12/04 11:43:53;;;;;;;17.10;11.32;;;6.00;99.90;;;;;;5031207;28;20534;-84
2021/12/04 11:46:23;;;;;;;19.35;11.10;;;5.90;99.90;;;;;;5031268;28;20056;-82
2021/12/04 11:48:49;;;;;;;21.55;11.55;;;5.90;99.90;;;;;;5034363;28;20170;-82
2021/12/04 11:51:22;;;;;;;20.63;11.50;;;6.00;99.90;;;;;;5031456;28;20077;-82
2021/12/04 11:53:54;;;;;;;19.65;12.23;;;6.00;99.90;;;;;;5022608;28;20500;-82
2021/12/04 11:56:27;;;;;;;20.90;12.82;;;5.90;99.90;;;;;;5035951;28;20403;-82
2021/12/04 11:58:52;;;;;;;23.13;13.02;;;6.00;99.90;;;;;;5034161;28;20424;-82
2021/12/04 12:01:31;;;;;;;22.67;12.57;;;5.90;99.90;;;;;;5035414;28;20052;-82
2021/12/04 12:04:04;;;;;;;25.58;13.50;;;6.00;99.90;;;;;;5035402;28;20076;-82
2021/12/04 12:06:33;;;;;;;23.77;12.95;;;6.00;99.90;;;;;;5032997;28;20072;-83
2021/12/04 12:09:08;;;;;;;21.98;12.52;;;5.90;99.90;;;;;;5054424;28;20480;-82
2021/12/04 12:11:35;;;;;;;22.98;13.25;;;6.00;99.90;;;;;;5035868;28;20036;-82
2021/12/04 12:14:05;;;;;;;27.35;14.40;;;5.90;99.90;;;;;;5032711;28;20519;-82
2021/12/04 12:16:38;;;;;;;29.23;14.43;;;5.90;99.90;;;;;;5034164;28;20243;-82
2021/12/04 12:19:07;;;;;;;26.27;13.55;;;5.90;99.90;;;;;;5034723;28;20041;-82
2021/12/04 12:21:58;;;;;;;30.83;14.98;;;5.80;99.90;;;;;;5020636;28;20033;-82
2021/12/04 12:27:22;;;;;;;24.70;13.85;;;6.00;99.90;;;;;;5052838;28;20049;-83
2021/12/04 12:38:38;;;;;;;30.60;14.32;;;6.10;99.90;;;;;;5033042;28;20056;-83
2021/12/04 12:41:32;;;;;;;29.95;15.25;;;6.10;99.90;;;;;;5032947;28;20133;-82
2021/12/04 12:43:59;;;;;;;28.63;14.85;;;6.00;99.90;;;;;;5036154;28;20116;-82
2021/12/04 12:46:38;;;;;;;29.92;15.25;;;6.00;99.90;;;;;;5035788;28;20550;-82
2021/12/04 12:49:16;;;;;;;29.02;16.02;;;5.90;99.90;;;;;;5030870;28;20044;-82
2021/12/04 12:51:45;;;;;;;30.25;16.88;;;5.80;99.90;;;;;;5015528;28;20047;-82
2021/12/04 12:54:27;;;;;;;29.63;16.17;;;5.80;99.90;;;;;;5033133;28;20545;-82
2021/12/04 12:57:04;;;;;;;33.35;17.15;;;5.90;99.90;;;;;;5019921;28;20037;-82
2021/12/04 13:14:23;;;;;;;35.28;18.60;;;5.80;99.90;;;;;;5035932;28;20429;-82
2021/12/04 13:16:52;;;;;;;36.83;19.25;;;5.80;99.90;;;;;;5020901;28;20041;-82
2021/12/04 13:19:21;;;;;;;40.28;19.23;;;5.80;99.90;;;;;;5012022;28;20071;-82
2021/12/04 13:21:50;;;;;;;39.25;19.67;;;5.80;99.90;;;;;;5027063;28;20125;-82
2021/12/04 13:24:17;;;;;;;43.83;19.50;;;5.80;99.90;;;;;;5012966;28;20091;-82
2021/12/04 13:26:47;;;;;;;43.33;20.35;;;5.90;99.90;;;;;;5030417;28;20033;-82
2021/12/04 13:29:16;;;;;;;39.10;18.83;;;5.80;99.90;;;;;;5022896;28;20036;-82
2021/12/04 13:31:43;;;;;;;40.45;19.42;;;5.80;99.90;;;;;;5034278;28;20094;-82
2021/12/04 13:34:12;;;;;;;38.40;18.58;;;5.80;99.90;;;;;;5020487;28;20455;-82
2021/12/04 13:36:45;;;;;;;43.00;18.80;;;5.80;99.90;;;;;;5036546;28;20048;-82
2021/12/04 13:39:16;;;;;;;43.60;19.40;;;5.80;99.90;;;;;;5013555;28;20091;-83
2021/12/04 13:41:44;;;;;;;37.40;19.10;;;5.70;99.90;;;;;;5018318;28;20103;-82
2021/12/04 13:44:13;;;;;;;41.35;19.15;;;5.70;99.90;;;;;;5021477;28;20044;-82
2021/12/04 13:46:51;;;;;;;45.92;19.67;;;5.80;99.90;;;;;;5032831;28;20041;-82
2021/12/04 13:49:33;;;;;;;42.72;18.70;;;5.80;99.90;;;;;;5051575;28;20068;-82
2021/12/04 13:52:09;;;;;;;44.83;21.08;;;5.80;99.90;;;;;;5020393;28;20041;-82
2021/12/04 13:54:40;;;;;;;43.45;20.80;;;5.80;99.90;;;;;;5021484;28;20037;-82
2021/12/04 13:57:14;;;;;;;47.38;21.15;;;5.80;99.90;;;;;;5019945;28;20041;-82
2021/12/04 13:59:41;;;;;;;55.07;23.77;;;5.90;99.90;;;;;;5020675;28;20131;-82
2021/12/04 14:02:17;;;;;;;44.72;21.75;;;5.90;99.90;;;;;;5029829;28;20135;-82
2021/12/04 14:04:43;;;;;;;47.20;21.65;;;5.80;99.90;;;;;;5036561;28;20041;-82
2021/12/04 14:07:08;;;;;;;44.80;20.52;;;5.80;99.90;;;;;;5043799;28;20034;-82
2021/12/04 14:09:38;;;;;;;41.53;20.35;;;5.90;99.90;;;;;;5032404;28;20080;-82
2021/12/04 14:12:06;;;;;;;43.35;20.02;;;5.90;99.90;;;;;;5018541;28;20128;-82
2021/12/04 14:14:34;;;;;;;44.80;21.30;;;5.90;99.90;;;;;;5028941;28;20581;-82
2021/12/04 14:17:07;;;;;;;41.97;19.05;;;5.80;99.90;;;;;;5018868;28;20037;-82
2021/12/04 14:19:34;;;;;;;42.45;19.13;;;5.90;99.90;;;;;;5013356;28;20112;-82
2021/12/04 14:22:08;;;;;;;40.03;19.90;;;5.90;99.90;;;;;;5026867;28;20544;-82
2021/12/04 14:24:36;;;;;;;43.03;19.73;;;5.80;99.90;;;;;;5015162;28;20136;-82
2021/12/04 14:27:05;;;;;;;43.03;20.35;;;5.80;99.90;;;;;;5012762;28;20041;-82
2021/12/04 14:29:41;;;;;;;39.20;19.60;;;5.80;99.90;;;;;;5032222;28;20045;-82
2021/12/04 14:32:11;;;;;;;46.40;20.52;;;5.80;99.90;;;;;;5008090;28;20045;-82
2021/12/04 14:34:37;;;;;;;48.85;20.00;;;5.80;99.90;;;;;;5015519;28;20176;-82
2021/12/04 14:37:12;;;;;;;43.50;20.02;;;5.80;99.90;;;;;;5016168;28;20485;-82
2021/12/04 14:39:44;;;;;;;50.70;20.80;;;5.80;99.90;;;;;;5010577;28;20041;-82
2021/12/04 14:42:31;;;;;;;47.15;20.90;;;5.70;99.90;;;;;;5027049;28;20042;-82
2021/12/04 14:45:02;;;;;;;44.45;21.30;;;5.70;99.90;;;;;;5020230;28;20045;-82
2021/12/04 14:47:32;;;;;;;53.30;23.90;;;5.70;99.90;;;;;;5019736;28;20461;-83
2021/12/04 14:50:00;;;;;;;49.65;22.55;;;5.70;99.90;;;;;;5032810;28;20045;-82
2021/12/04 14:52:29;;;;;;;47.28;21.85;;;5.70;99.90;;;;;;5031418;28;20728;-82
2021/12/04 14:54:56;;;;;;;49.92;22.15;;;5.70;99.90;;;;;;5016664;28;20041;-82
2021/12/04 14:57:26;;;;;;;44.60;22.05;;;5.70;99.90;;;;;;5032216;28;20049;-82
2021/12/04 15:00:09;;;;;;;52.90;23.63;;;5.70;99.90;;;;;;5014126;28;20033;-82
2021/12/04 15:02:34;;;;;;;53.00;24.48;;;5.70;99.90;;;;;;5047074;28;20056;-82
2021/12/04 15:05:03;;;;;;;58.03;25.73;;;5.70;99.90;;;;;;5034303;28;20037;-83
2021/12/04 15:07:32;;;;;;;54.85;25.60;;;5.60;99.90;;;;;;5020519;28;20116;-82
2021/12/04 15:10:19;;;;;;;50.63;24.33;;;5.60;99.90;;;;;;5032256;28;20162;-82
2021/12/04 15:12:45;;;;;;;58.47;25.27;;;5.60;99.90;;;;;;5021698;28;20037;-82
2021/12/04 15:15:13;;;;;;;63.83;26.13;;;5.60;99.90;;;;;;5018415;28;20040;-82
2021/12/04 15:17:42;;;;;;;64.75;27.02;;;5.60;99.90;;;;;;5020230;28;20048;-82
2021/12/04 15:20:12;;;;;;;58.42;26.27;;;5.60;99.90;;;;;;5036149;28;20515;-82
2021/12/04 15:22:43;;;;;;;70.38;28.52;;;5.70;99.90;;;;;;5023494;28;20062;-82
2021/12/04 15:25:16;;;;;;;61.35;26.58;;;5.60;99.90;;;;;;5024902;28;20099;-82
2021/12/04 15:27:42;;;;;;;55.65;27.65;;;5.60;99.90;;;;;;5024814;28;20041;-82
2021/12/04 15:30:15;;;;;;;67.25;26.65;;;5.60;99.90;;;;;;5025015;28;20052;-82
2021/12/04 15:32:42;;;;;;;77.32;28.95;;;5.60;99.90;;;;;;5041943;28;20468;-82
2021/12/04 15:38:00;;;;;;;72.57;27.92;;;5.60;99.90;;;;;;5035099;28;20098;-82
2021/12/04 15:40:38;;;;;;;67.00;27.65;;;5.60;99.90;;;;;;5032927;28;20477;-82
2021/12/04 15:45:56;;;;;;;73.35;27.95;;;5.60;99.90;;;;;;5036801;28;20511;-82
2021/12/04 15:48:52;;;;;;;64.05;26.20;;;5.60;99.90;;;;;;5017649;28;20060;-82
2021/12/04 15:54:11;;;;;;;62.90;26.20;;;5.60;99.90;;;;;;5052469;28;20041;-82